ANA215 RJTT-LFPG
Flight info
| Callsign | ANA215 |
|---|---|
| Flight time | N/A |
| Altitude | 31000 |
| Route | ROVER3A INUBO Y808 PUTER A590 POWAL DCT HEDMI DCT NATES DCT ROCET DCT IDROD DCT CIVED DCT BRW DCT AGMIF DCT DEXUN DCT 78N060W 73N040W 70N030W 66N020W DCT RATSU DCT BARKU DCT AKOMU DCT VAMEB UL612 HON DCT XIDIL UM605 BIBAX BIBAX9P |
| Aircraft | B77W/H-VGDW/C |
Departure
| Time | 2026-05-07 12:18 |
|---|---|
| Airport | Tokyo Haneda International Airport (RJTT) |
Arrival
| Time | N/A |
|---|---|
| Airport | Charles de Gaulle International Airport (LFPG) |
| Time | Latitude | Longitude | Altitude | Speed | Heading |
|---|---|---|---|---|---|
| 2026-05-07 11:37 | 35.54471 | 139.77100 | 28 ft | 0 kts | 240° |
| 2026-05-07 12:00 | 35.54477 | 139.77112 | 28 ft | 3 kts | 240° |
| 2026-05-07 12:00 | 35.54487 | 139.77133 | 27 ft | 3 kts | 240° |
| 2026-05-07 12:01 | 35.54497 | 139.77154 | 27 ft | 2 kts | 240° |
| 2026-05-07 12:01 | 35.54505 | 139.77174 | 26 ft | 3 kts | 264° |
| 2026-05-07 12:01 | 35.54503 | 139.77197 | 25 ft | 3 kts | 297° |
| 2026-05-07 12:01 | 35.54492 | 139.77217 | 24 ft | 3 kts | 319° |
| 2026-05-07 12:02 | 35.54477 | 139.77231 | 25 ft | 2 kts | 329° |
| 2026-05-07 12:02 | 35.54472 | 139.77234 | 26 ft | 0 kts | 330° |
| 2026-05-07 12:06 | 35.54478 | 139.77229 | 26 ft | 5 kts | 328° |
| 2026-05-07 12:06 | 35.54520 | 139.77198 | 26 ft | 7 kts | 328° |
| 2026-05-07 12:06 | 35.54563 | 139.77172 | 28 ft | 7 kts | 356° |
| 2026-05-07 12:06 | 35.54584 | 139.77224 | 28 ft | 7 kts | 79° |
| 2026-05-07 12:07 | 35.54593 | 139.77289 | 28 ft | 8 kts | 81° |
| 2026-05-07 12:07 | 35.54619 | 139.77353 | 28 ft | 9 kts | 56° |
| 2026-05-07 12:07 | 35.54651 | 139.77415 | 28 ft | 9 kts | 57° |
| 2026-05-07 12:07 | 35.54706 | 139.77433 | 28 ft | 9 kts | 345° |
| 2026-05-07 12:08 | 35.54761 | 139.77400 | 28 ft | 10 kts | 331° |
| 2026-05-07 12:08 | 35.54854 | 139.77334 | 28 ft | 17 kts | 330° |
| 2026-05-07 12:08 | 35.54955 | 139.77263 | 27 ft | 17 kts | 330° |
| 2026-05-07 12:08 | 35.55058 | 139.77191 | 27 ft | 17 kts | 330° |
| 2026-05-07 12:09 | 35.55159 | 139.77119 | 27 ft | 17 kts | 330° |
| 2026-05-07 12:09 | 35.55259 | 139.77048 | 27 ft | 17 kts | 330° |
| 2026-05-07 12:09 | 35.55362 | 139.76976 | 27 ft | 17 kts | 330° |
| 2026-05-07 12:09 | 35.55455 | 139.76915 | 27 ft | 14 kts | 345° |
| 2026-05-07 12:10 | 35.55547 | 139.76952 | 27 ft | 14 kts | 33° |
| 2026-05-07 12:10 | 35.55646 | 139.77034 | 28 ft | 22 kts | 35° |
| 2026-05-07 12:10 | 35.55793 | 139.77160 | 28 ft | 28 kts | 35° |
| 2026-05-07 12:10 | 35.55920 | 139.77282 | 27 ft | 20 kts | 51° |
| 2026-05-07 12:11 | 35.55993 | 139.77430 | 28 ft | 20 kts | 59° |
| 2026-05-07 12:11 | 35.56064 | 139.77580 | 28 ft | 20 kts | 60° |
| 2026-05-07 12:11 | 35.56135 | 139.77729 | 28 ft | 20 kts | 60° |
| 2026-05-07 12:11 | 35.56206 | 139.77879 | 28 ft | 20 kts | 59° |
| 2026-05-07 12:12 | 35.56278 | 139.78029 | 27 ft | 20 kts | 59° |
| 2026-05-07 12:12 | 35.56349 | 139.78178 | 27 ft | 20 kts | 59° |
| 2026-05-07 12:12 | 35.56420 | 139.78328 | 27 ft | 20 kts | 60° |
| 2026-05-07 12:12 | 35.56481 | 139.78458 | 27 ft | 9 kts | 60° |
| 2026-05-07 12:13 | 35.56503 | 139.78507 | 27 ft | 2 kts | 60° |
| 2026-05-07 12:13 | 35.56504 | 139.78507 | 27 ft | 0 kts | 60° |
| 2026-05-07 12:13 | 35.56507 | 139.78515 | 27 ft | 3 kts | 60° |
| 2026-05-07 12:14 | 35.56525 | 139.78553 | 27 ft | 7 kts | 60° |
| 2026-05-07 12:14 | 35.56556 | 139.78623 | 28 ft | 11 kts | 68° |
| 2026-05-07 12:14 | 35.56529 | 139.78698 | 28 ft | 7 kts | 144° |
| 2026-05-07 12:14 | 35.56506 | 139.78716 | 28 ft | 0 kts | 149° |
| 2026-05-07 12:17 | 35.56499 | 139.78721 | 28 ft | 8 kts | 149° |
| 2026-05-07 12:17 | 35.56241 | 139.78904 | 28 ft | 81 kts | 150° |
| 2026-05-07 12:17 | 35.55535 | 139.79401 | 29 ft | 152 kts | 150° |
| 2026-05-07 12:17 | 35.54441 | 139.80185 | 97 ft | 201 kts | 151° |
| 2026-05-07 12:18 | 35.53306 | 139.81055 | 1026 ft | 193 kts | 149° |
| 2026-05-07 12:18 | 35.52214 | 139.82226 | 1279 ft | 219 kts | 138° |
| 2026-05-07 12:18 | 35.51159 | 139.83619 | 1540 ft | 226 kts | 137° |
| 2026-05-07 12:18 | 35.50064 | 139.85068 | 1723 ft | 237 kts | 139° |
| 2026-05-07 12:19 | 35.48905 | 139.86577 | 2027 ft | 248 kts | 140° |
| 2026-05-07 12:19 | 35.47692 | 139.88138 | 2363 ft | 256 kts | 140° |
| 2026-05-07 12:19 | 35.46459 | 139.89745 | 2804 ft | 261 kts | 135° |
| 2026-05-07 12:19 | 35.45675 | 139.91787 | 3167 ft | 276 kts | 98° |
| 2026-05-07 12:20 | 35.45940 | 139.94145 | 3411 ft | 290 kts | 63° |
| 2026-05-07 12:20 | 35.47165 | 139.96128 | 3622 ft | 298 kts | 36° |
| 2026-05-07 12:20 | 35.48974 | 139.97344 | 3959 ft | 299 kts | 11° |
| 2026-05-07 12:20 | 35.51027 | 139.97620 | 4341 ft | 295 kts | 349° |
| 2026-05-07 12:21 | 35.53050 | 139.97234 | 4855 ft | 294 kts | 342° |
| 2026-05-07 12:21 | 35.55040 | 139.96674 | 5440 ft | 292 kts | 342° |
| 2026-05-07 12:21 | 35.57007 | 139.96092 | 6042 ft | 291 kts | 343° |
| 2026-05-07 12:21 | 35.58988 | 139.95513 | 6503 ft | 294 kts | 343° |
| 2026-05-07 12:22 | 35.60993 | 139.94944 | 6972 ft | 297 kts | 344° |
| 2026-05-07 12:22 | 35.63013 | 139.94393 | 7444 ft | 299 kts | 344° |
| 2026-05-07 12:22 | 35.65056 | 139.93844 | 7905 ft | 301 kts | 344° |
| 2026-05-07 12:22 | 35.67105 | 139.93299 | 8376 ft | 303 kts | 344° |
| 2026-05-07 12:23 | 35.69178 | 139.92750 | 8876 ft | 305 kts | 344° |
| 2026-05-07 12:23 | 35.71263 | 139.92201 | 9345 ft | 307 kts | 344° |
| 2026-05-07 12:23 | 35.73355 | 139.91652 | 9814 ft | 309 kts | 343° |
| 2026-05-07 12:23 | 35.75467 | 139.91099 | 10240 ft | 311 kts | 343° |
| 2026-05-07 12:24 | 35.77590 | 139.90544 | 10660 ft | 313 kts | 343° |
| 2026-05-07 12:24 | 35.79731 | 139.89984 | 11058 ft | 315 kts | 343° |
| 2026-05-07 12:24 | 35.81883 | 139.89421 | 11461 ft | 317 kts | 343° |
| 2026-05-07 12:24 | 35.84022 | 139.88862 | 11876 ft | 319 kts | 343° |
| 2026-05-07 12:25 | 35.86204 | 139.88291 | 12275 ft | 322 kts | 343° |
| 2026-05-07 12:25 | 35.88429 | 139.87709 | 12695 ft | 324 kts | 343° |
| 2026-05-07 12:25 | 35.90616 | 139.87136 | 13106 ft | 326 kts | 343° |
| 2026-05-07 12:25 | 35.92873 | 139.86543 | 13536 ft | 328 kts | 343° |
| 2026-05-07 12:26 | 35.95116 | 139.85954 | 13922 ft | 330 kts | 343° |
| 2026-05-07 12:26 | 35.97380 | 139.85445 | 14262 ft | 334 kts | 352° |
| 2026-05-07 12:26 | 35.99736 | 139.85544 | 14562 ft | 343 kts | 5° |
| 2026-05-07 12:26 | 36.02061 | 139.86302 | 14905 ft | 349 kts | 17° |
| 2026-05-07 12:27 | 36.04328 | 139.87400 | 15274 ft | 351 kts | 18° |
| 2026-05-07 12:27 | 36.06605 | 139.88527 | 15637 ft | 353 kts | 18° |
| 2026-05-07 12:27 | 36.08760 | 139.89976 | 15854 ft | 360 kts | 39° |
| 2026-05-07 12:27 | 36.10403 | 139.92335 | 16018 ft | 369 kts | 61° |
| 2026-05-07 12:28 | 36.11265 | 139.95360 | 16083 ft | 379 kts | 84° |
| 2026-05-07 12:28 | 36.11189 | 139.98616 | 16183 ft | 385 kts | 104° |
| 2026-05-07 12:28 | 36.10334 | 140.01775 | 16293 ft | 392 kts | 119° |
| 2026-05-07 12:28 | 36.09023 | 140.04783 | 16410 ft | 404 kts | 123° |
| 2026-05-07 12:29 | 36.07544 | 140.07808 | 16520 ft | 418 kts | 124° |
| 2026-05-07 12:29 | 36.05987 | 140.10903 | 16730 ft | 429 kts | 124° |
| 2026-05-07 12:29 | 36.04405 | 140.14064 | 17068 ft | 436 kts | 124° |
| 2026-05-07 12:29 | 36.02821 | 140.17282 | 17568 ft | 440 kts | 123° |
| 2026-05-07 12:30 | 36.01247 | 140.20526 | 18123 ft | 441 kts | 123° |
| 2026-05-07 12:30 | 35.99695 | 140.23755 | 18564 ft | 444 kts | 123° |
| 2026-05-07 12:30 | 35.98102 | 140.27087 | 18997 ft | 447 kts | 123° |
| 2026-05-07 12:30 | 35.96540 | 140.30357 | 19422 ft | 449 kts | 123° |
| 2026-05-07 12:31 | 35.94950 | 140.33686 | 19840 ft | 451 kts | 123° |
| 2026-05-07 12:31 | 35.93350 | 140.37030 | 20277 ft | 453 kts | 123° |
| 2026-05-07 12:31 | 35.91744 | 140.40382 | 20719 ft | 456 kts | 123° |
| 2026-05-07 12:31 | 35.90121 | 140.43763 | 21169 ft | 459 kts | 123° |
| 2026-05-07 12:32 | 35.88492 | 140.47152 | 21593 ft | 461 kts | 123° |
| 2026-05-07 12:32 | 35.86850 | 140.50564 | 22005 ft | 463 kts | 123° |
| 2026-05-07 12:32 | 35.85193 | 140.53982 | 22405 ft | 466 kts | 124° |
| 2026-05-07 12:32 | 35.83529 | 140.57418 | 22775 ft | 468 kts | 123° |
| 2026-05-07 12:33 | 35.80186 | 140.64351 | 23493 ft | 472 kts | 123° |
| 2026-05-07 12:33 | 35.78508 | 140.67832 | 23810 ft | 474 kts | 124° |
| 2026-05-07 12:33 | 35.76817 | 140.71333 | 24119 ft | 476 kts | 124° |
| 2026-05-07 12:34 | 35.75120 | 140.74840 | 24418 ft | 478 kts | 124° |
| 2026-05-07 12:34 | 35.73435 | 140.78367 | 24700 ft | 480 kts | 122° |
| 2026-05-07 12:34 | 35.71950 | 140.82077 | 24973 ft | 485 kts | 115° |
| 2026-05-07 12:34 | 35.70774 | 140.85987 | 25251 ft | 489 kts | 112° |
| 2026-05-07 12:35 | 35.69651 | 140.89948 | 25484 ft | 492 kts | 112° |
| 2026-05-07 12:35 | 35.68513 | 140.93928 | 25680 ft | 495 kts | 113° |
| 2026-05-07 12:35 | 35.67357 | 140.97921 | 25923 ft | 497 kts | 113° |
| 2026-05-07 12:35 | 35.66182 | 141.01935 | 26196 ft | 498 kts | 113° |
| 2026-05-07 12:36 | 35.65001 | 141.05942 | 26468 ft | 500 kts | 114° |
| 2026-05-07 12:36 | 35.63811 | 141.09963 | 26722 ft | 501 kts | 114° |
| 2026-05-07 12:36 | 35.62615 | 141.13994 | 26942 ft | 504 kts | 114° |
| 2026-05-07 12:36 | 35.61816 | 141.16681 | 27046 ft | 506 kts | 114° |
| 2026-05-07 12:37 | 35.60607 | 141.20745 | 27268 ft | 508 kts | 114° |
| 2026-05-07 12:37 | 35.59395 | 141.24820 | 27517 ft | 509 kts | 114° |
| 2026-05-07 12:37 | 35.58176 | 141.28912 | 27762 ft | 510 kts | 114° |
| 2026-05-07 12:37 | 35.56956 | 141.33003 | 27977 ft | 511 kts | 115° |
| 2026-05-07 12:38 | 35.55723 | 141.37112 | 28181 ft | 513 kts | 115° |
| 2026-05-07 12:38 | 35.54488 | 141.41238 | 28319 ft | 516 kts | 115° |
| 2026-05-07 12:38 | 35.53245 | 141.45379 | 28448 ft | 518 kts | 115° |
| 2026-05-07 12:38 | 35.52004 | 141.49517 | 28828 ft | 516 kts | 115° |
| 2026-05-07 12:39 | 35.50767 | 141.53643 | 29138 ft | 515 kts | 115° |
| 2026-05-07 12:39 | 35.49529 | 141.57764 | 29306 ft | 518 kts | 115° |
| 2026-05-07 12:39 | 35.48275 | 141.61928 | 29461 ft | 520 kts | 115° |
| 2026-05-07 12:39 | 35.47004 | 141.66144 | 29697 ft | 520 kts | 115° |
| 2026-05-07 12:40 | 35.45811 | 141.70271 | 29973 ft | 521 kts | 111° |
| 2026-05-07 12:40 | 35.44921 | 141.74580 | 30210 ft | 524 kts | 105° |
| 2026-05-07 12:40 | 35.44342 | 141.78998 | 30490 ft | 524 kts | 101° |
| 2026-05-07 12:40 | 35.44067 | 141.83457 | 30738 ft | 526 kts | 95° |
| 2026-05-07 12:41 | 35.44042 | 141.87963 | 30844 ft | 529 kts | 94° |
| 2026-05-07 12:41 | 35.44047 | 141.92480 | 30883 ft | 532 kts | 94° |
| 2026-05-07 12:41 | 35.44042 | 142.01607 | 30940 ft | 538 kts | 94° |
| 2026-05-07 12:42 | 35.43982 | 142.10831 | 30952 ft | 544 kts | 94° |
| 2026-05-07 12:42 | 35.43893 | 142.20154 | 30950 ft | 549 kts | 94° |
| 2026-05-07 12:43 | 35.43796 | 142.29566 | 30941 ft | 554 kts | 94° |
| 2026-05-07 12:43 | 35.43696 | 142.39038 | 30953 ft | 557 kts | 94° |
| 2026-05-07 12:44 | 35.43589 | 142.48570 | 30954 ft | 560 kts | 94° |
| 2026-05-07 12:44 | 35.43472 | 142.58150 | 30955 ft | 563 kts | 94° |
| 2026-05-07 12:45 | 35.43345 | 142.67745 | 30944 ft | 563 kts | 95° |
| 2026-05-07 12:45 | 35.43213 | 142.77290 | 30930 ft | 550 kts | 95° |
| 2026-05-07 12:46 | 35.43150 | 142.81918 | 30920 ft | 535 kts | 95° |
| 2026-05-07 12:46 | 35.43085 | 142.86439 | 30951 ft | 528 kts | 95° |
| 2026-05-07 12:46 | 35.42949 | 142.95421 | 30954 ft | 527 kts | 95° |
| 2026-05-07 12:47 | 35.42800 | 143.04406 | 30954 ft | 527 kts | 95° |
| 2026-05-07 12:47 | 35.42643 | 143.13401 | 30974 ft | 529 kts | 95° |
| 2026-05-07 12:48 | 35.42488 | 143.22426 | 30969 ft | 529 kts | 95° |
| 2026-05-07 12:48 | 35.42681 | 143.26934 | 30958 ft | 533 kts | 80° |
| 2026-05-07 12:48 | 35.43859 | 143.31241 | 30975 ft | 537 kts | 63° |
| 2026-05-07 12:49 | 35.45886 | 143.35082 | 30981 ft | 538 kts | 50° |
| 2026-05-07 12:49 | 35.48570 | 143.38247 | 30954 ft | 536 kts | 32° |
| 2026-05-07 12:49 | 35.55016 | 143.42774 | 30960 ft | 535 kts | 26° |
| 2026-05-07 12:50 | 35.61581 | 143.47156 | 30973 ft | 540 kts | 27° |
| 2026-05-07 12:50 | 35.68103 | 143.51805 | 30974 ft | 543 kts | 28° |
| 2026-05-07 12:51 | 35.74614 | 143.56557 | 30966 ft | 545 kts | 28° |
| 2026-05-07 12:51 | 35.81164 | 143.61303 | 30958 ft | 547 kts | 28° |
| 2026-05-07 12:52 | 35.87726 | 143.66051 | 30951 ft | 547 kts | 28° |
| 2026-05-07 12:52 | 35.93884 | 143.70526 | 30949 ft | 546 kts | 28° |
| 2026-05-07 12:53 | 36.00416 | 143.75291 | 30955 ft | 545 kts | 28° |
| 2026-05-07 12:53 | 36.06922 | 143.80050 | 30946 ft | 543 kts | 28° |
| 2026-05-07 12:54 | 36.13420 | 143.84810 | 30936 ft | 541 kts | 28° |
| 2026-05-07 12:54 | 36.19890 | 143.89564 | 30938 ft | 540 kts | 28° |
| 2026-05-07 12:55 | 36.26344 | 143.94305 | 30950 ft | 539 kts | 28° |
| 2026-05-07 12:55 | 36.32787 | 143.99036 | 30936 ft | 537 kts | 28° |
| 2026-05-07 12:56 | 36.39209 | 144.03761 | 30933 ft | 536 kts | 27° |
| 2026-05-07 12:56 | 36.45605 | 144.08487 | 30928 ft | 535 kts | 28° |
| 2026-05-07 12:57 | 36.51983 | 144.13221 | 30938 ft | 534 kts | 28° |
| 2026-05-07 12:57 | 36.58361 | 144.17963 | 30930 ft | 534 kts | 28° |
| 2026-05-07 12:58 | 36.64732 | 144.22708 | 30934 ft | 534 kts | 28° |
| 2026-05-07 12:58 | 36.71110 | 144.27480 | 30924 ft | 537 kts | 29° |
| 2026-05-07 12:59 | 36.77534 | 144.32313 | 30950 ft | 542 kts | 28° |
| 2026-05-07 12:59 | 36.84034 | 144.37162 | 30935 ft | 547 kts | 29° |
| 2026-05-07 13:00 | 36.90573 | 144.42071 | 30933 ft | 550 kts | 29° |
| 2026-05-07 13:00 | 36.97153 | 144.47029 | 30941 ft | 553 kts | 29° |
| 2026-05-07 13:01 | 37.03762 | 144.52020 | 30934 ft | 555 kts | 28° |
| 2026-05-07 13:01 | 37.10312 | 144.56975 | 30914 ft | 547 kts | 28° |
| 2026-05-07 13:02 | 37.16838 | 144.61918 | 30918 ft | 548 kts | 28° |
| 2026-05-07 13:02 | 37.23325 | 144.66842 | 30936 ft | 549 kts | 28° |
| 2026-05-07 13:03 | 37.29908 | 144.71850 | 30926 ft | 550 kts | 28° |
| 2026-05-07 13:03 | 37.36464 | 144.76848 | 30940 ft | 552 kts | 28° |
| 2026-05-07 13:04 | 37.43044 | 144.81875 | 30936 ft | 554 kts | 28° |
| 2026-05-07 13:04 | 37.49645 | 144.86928 | 30936 ft | 556 kts | 28° |
| 2026-05-07 13:05 | 37.56257 | 144.92002 | 30928 ft | 557 kts | 28° |
| 2026-05-07 13:05 | 37.62882 | 144.97096 | 30928 ft | 558 kts | 28° |
| 2026-05-07 13:06 | 37.69505 | 145.02198 | 30936 ft | 558 kts | 28° |
| 2026-05-07 13:06 | 37.76123 | 145.07308 | 30930 ft | 557 kts | 28° |
| 2026-05-07 13:07 | 37.82732 | 145.12422 | 30934 ft | 557 kts | 28° |
| 2026-05-07 13:07 | 37.89336 | 145.17543 | 30941 ft | 557 kts | 28° |
| 2026-05-07 13:08 | 37.95943 | 145.22676 | 30934 ft | 557 kts | 28° |
| 2026-05-07 13:08 | 38.02542 | 145.27815 | 30932 ft | 557 kts | 28° |
| 2026-05-07 13:09 | 38.09137 | 145.32962 | 30932 ft | 556 kts | 28° |
| 2026-05-07 13:09 | 38.15730 | 145.38118 | 30937 ft | 557 kts | 28° |
| 2026-05-07 13:10 | 38.22318 | 145.43282 | 30931 ft | 556 kts | 28° |
| 2026-05-07 13:10 | 38.28855 | 145.48417 | 30933 ft | 556 kts | 28° |
| 2026-05-07 13:11 | 38.35234 | 145.54035 | 30923 ft | 560 kts | 38° |
| 2026-05-07 13:11 | 38.40966 | 145.60760 | 30942 ft | 561 kts | 41° |
| 2026-05-07 13:12 | 38.46639 | 145.67597 | 30932 ft | 561 kts | 41° |
| 2026-05-07 13:12 | 38.52335 | 145.74396 | 30936 ft | 560 kts | 40° |
| 2026-05-07 13:13 | 38.58054 | 145.81175 | 30931 ft | 561 kts | 40° |
| 2026-05-07 13:13 | 38.63769 | 145.87950 | 30935 ft | 561 kts | 40° |
| 2026-05-07 13:14 | 38.69488 | 145.94750 | 30967 ft | 561 kts | 40° |
| 2026-05-07 13:14 | 38.75205 | 146.01570 | 30940 ft | 562 kts | 40° |
| 2026-05-07 13:15 | 38.80912 | 146.08396 | 30939 ft | 561 kts | 40° |
| 2026-05-07 13:15 | 38.86611 | 146.15226 | 30938 ft | 561 kts | 40° |
| 2026-05-07 13:16 | 38.92311 | 146.22075 | 30938 ft | 560 kts | 40° |
| 2026-05-07 13:16 | 38.98000 | 146.28924 | 30940 ft | 560 kts | 40° |
| 2026-05-07 13:17 | 39.02718 | 146.34617 | 30962 ft | 560 kts | 40° |
| 2026-05-07 13:17 | 39.09317 | 146.42597 | 30946 ft | 560 kts | 40° |
| 2026-05-07 13:18 | 39.14986 | 146.49471 | 30940 ft | 559 kts | 40° |
| 2026-05-07 13:18 | 39.19729 | 146.55233 | 30944 ft | 559 kts | 40° |
| 2026-05-07 13:19 | 39.25381 | 146.62116 | 30941 ft | 559 kts | 40° |
| 2026-05-07 13:19 | 39.31027 | 146.69006 | 30947 ft | 559 kts | 40° |
| 2026-05-07 13:20 | 39.36684 | 146.75927 | 30950 ft | 560 kts | 40° |
| 2026-05-07 13:20 | 39.42338 | 146.82859 | 30949 ft | 560 kts | 40° |
| 2026-05-07 13:21 | 39.47991 | 146.89807 | 30946 ft | 560 kts | 40° |
| 2026-05-07 13:21 | 39.53637 | 146.96763 | 30948 ft | 560 kts | 40° |
| 2026-05-07 13:22 | 39.59283 | 147.03736 | 30948 ft | 561 kts | 41° |
| 2026-05-07 13:22 | 39.64921 | 147.10714 | 30963 ft | 561 kts | 40° |
| 2026-05-07 13:23 | 39.70563 | 147.17715 | 30953 ft | 561 kts | 40° |
| 2026-05-07 13:23 | 39.76205 | 147.24731 | 30948 ft | 561 kts | 40° |
| 2026-05-07 13:24 | 39.81847 | 147.31765 | 30951 ft | 562 kts | 40° |
| 2026-05-07 13:24 | 39.87482 | 147.38808 | 30959 ft | 562 kts | 40° |
| 2026-05-07 13:25 | 39.93117 | 147.45867 | 30953 ft | 562 kts | 40° |
| 2026-05-07 13:25 | 39.98748 | 147.52937 | 30966 ft | 562 kts | 40° |
| 2026-05-07 13:26 | 40.04376 | 147.60021 | 30965 ft | 562 kts | 40° |
| 2026-05-07 13:26 | 40.09999 | 147.67117 | 30955 ft | 562 kts | 40° |
| 2026-05-07 13:27 | 40.15613 | 147.74217 | 30961 ft | 562 kts | 40° |
| 2026-05-07 13:27 | 40.21218 | 147.81325 | 30956 ft | 561 kts | 40° |
| 2026-05-07 13:28 | 40.26821 | 147.88446 | 30971 ft | 561 kts | 40° |
| 2026-05-07 13:28 | 40.32419 | 147.95579 | 30963 ft | 561 kts | 40° |
| 2026-05-07 13:29 | 40.38013 | 148.02724 | 30962 ft | 561 kts | 40° |
| 2026-05-07 13:29 | 40.43600 | 148.09877 | 30967 ft | 561 kts | 40° |
| 2026-05-07 13:30 | 40.49184 | 148.17045 | 30971 ft | 561 kts | 40° |
| 2026-05-07 13:30 | 40.54758 | 148.24216 | 30967 ft | 561 kts | 40° |
| 2026-05-07 13:31 | 40.60330 | 148.31403 | 30973 ft | 561 kts | 40° |
| 2026-05-07 13:31 | 40.65893 | 148.38596 | 30969 ft | 561 kts | 40° |
| 2026-05-07 13:32 | 40.71454 | 148.45804 | 30970 ft | 561 kts | 40° |
| 2026-05-07 13:32 | 40.77008 | 148.53023 | 30979 ft | 561 kts | 40° |
| 2026-05-07 13:33 | 40.82559 | 148.60253 | 30972 ft | 561 kts | 40° |
| 2026-05-07 13:33 | 40.88104 | 148.67495 | 30975 ft | 561 kts | 40° |
| 2026-05-07 13:34 | 40.96420 | 148.78390 | 30976 ft | 561 kts | 39° |
| 2026-05-07 13:35 | 41.01925 | 148.85625 | 30968 ft | 561 kts | 39° |
| 2026-05-07 13:35 | 41.07495 | 148.92964 | 30970 ft | 561 kts | 39° |
| 2026-05-07 13:36 | 41.12990 | 149.00221 | 30978 ft | 561 kts | 39° |
| 2026-05-07 13:36 | 41.18518 | 149.07545 | 30974 ft | 562 kts | 40° |
| 2026-05-07 13:37 | 41.24079 | 149.14933 | 30979 ft | 562 kts | 39° |
| 2026-05-07 13:37 | 41.29567 | 149.22242 | 30977 ft | 562 kts | 39° |
| 2026-05-07 13:38 | 41.35116 | 149.29652 | 30976 ft | 562 kts | 39° |
| 2026-05-07 13:38 | 41.40629 | 149.37033 | 30974 ft | 562 kts | 39° |
| 2026-05-07 13:39 | 41.46131 | 149.44417 | 30974 ft | 561 kts | 39° |
| 2026-05-07 13:39 | 41.51584 | 149.51754 | 30978 ft | 560 kts | 39° |
| 2026-05-07 13:40 | 41.57062 | 149.59144 | 30971 ft | 560 kts | 40° |
| 2026-05-07 13:40 | 41.62530 | 149.66539 | 30974 ft | 559 kts | 40° |
| 2026-05-07 13:41 | 41.67985 | 149.73935 | 30985 ft | 558 kts | 40° |
| 2026-05-07 13:41 | 41.73427 | 149.81334 | 30975 ft | 557 kts | 40° |
| 2026-05-07 13:42 | 41.78852 | 149.88727 | 30975 ft | 556 kts | 40° |
| 2026-05-07 13:42 | 41.84266 | 149.96124 | 30983 ft | 555 kts | 40° |
| 2026-05-07 13:43 | 41.89669 | 150.03526 | 30984 ft | 555 kts | 40° |
| 2026-05-07 13:43 | 41.95065 | 150.10936 | 30971 ft | 554 kts | 40° |
| 2026-05-07 13:44 | 42.00444 | 150.18343 | 30983 ft | 553 kts | 40° |
| 2026-05-07 13:44 | 42.05811 | 150.25752 | 30971 ft | 553 kts | 40° |
| 2026-05-07 13:45 | 42.11171 | 150.33170 | 30969 ft | 552 kts | 40° |
| 2026-05-07 13:45 | 42.16515 | 150.40586 | 30977 ft | 552 kts | 40° |
| 2026-05-07 13:46 | 42.21860 | 150.48021 | 30970 ft | 552 kts | 40° |
| 2026-05-07 13:46 | 42.27207 | 150.55479 | 30975 ft | 553 kts | 40° |
| 2026-05-07 13:47 | 42.32553 | 150.62956 | 30976 ft | 553 kts | 40° |
| 2026-05-07 13:47 | 42.37896 | 150.70447 | 30969 ft | 554 kts | 40° |
| 2026-05-07 13:48 | 42.43240 | 150.77960 | 30967 ft | 554 kts | 40° |
| 2026-05-07 13:48 | 42.48583 | 150.85492 | 30977 ft | 554 kts | 40° |
| 2026-05-07 13:49 | 42.53889 | 150.92989 | 30972 ft | 555 kts | 40° |
| 2026-05-07 13:49 | 42.59232 | 151.00560 | 30966 ft | 555 kts | 40° |
| 2026-05-07 13:50 | 42.64606 | 151.08194 | 30966 ft | 556 kts | 41° |
| 2026-05-07 13:50 | 42.69938 | 151.15790 | 30961 ft | 556 kts | 41° |
| 2026-05-07 13:51 | 42.75232 | 151.23353 | 30967 ft | 556 kts | 41° |
| 2026-05-07 13:51 | 42.80561 | 151.30984 | 30968 ft | 556 kts | 41° |
| 2026-05-07 13:52 | 42.85881 | 151.38623 | 30954 ft | 556 kts | 40° |
| 2026-05-07 13:52 | 42.91198 | 151.46279 | 30959 ft | 556 kts | 40° |
| 2026-05-07 13:53 | 42.96509 | 151.53946 | 30957 ft | 556 kts | 40° |
| 2026-05-07 13:53 | 43.01813 | 151.61623 | 30952 ft | 555 kts | 40° |
| 2026-05-07 13:54 | 43.07106 | 151.69306 | 30953 ft | 555 kts | 40° |
| 2026-05-07 13:54 | 43.12394 | 151.77003 | 30962 ft | 555 kts | 40° |
| 2026-05-07 13:55 | 43.17672 | 151.84705 | 30972 ft | 554 kts | 40° |
| 2026-05-07 13:55 | 43.22945 | 151.92419 | 30954 ft | 555 kts | 40° |
| 2026-05-07 13:56 | 43.28215 | 152.00152 | 30958 ft | 555 kts | 40° |
| 2026-05-07 13:56 | 43.33483 | 152.07902 | 30947 ft | 555 kts | 40° |
| 2026-05-07 13:57 | 43.38740 | 152.15658 | 30949 ft | 555 kts | 40° |
| 2026-05-07 13:57 | 43.43991 | 152.23425 | 30943 ft | 554 kts | 40° |
| 2026-05-07 13:58 | 43.49230 | 152.31198 | 30937 ft | 554 kts | 40° |
| 2026-05-07 13:58 | 43.54468 | 152.38987 | 30936 ft | 555 kts | 40° |
| 2026-05-07 13:59 | 43.59678 | 152.46758 | 30943 ft | 555 kts | 40° |
| 2026-05-07 13:59 | 43.64915 | 152.54589 | 30937 ft | 556 kts | 40° |
| 2026-05-07 14:00 | 43.70150 | 152.62442 | 30940 ft | 556 kts | 40° |
| 2026-05-07 14:00 | 43.75383 | 152.70314 | 30954 ft | 555 kts | 40° |
| 2026-05-07 14:01 | 43.80601 | 152.78182 | 30934 ft | 555 kts | 40° |
| 2026-05-07 14:01 | 43.84972 | 152.84791 | 30932 ft | 554 kts | 40° |
| 2026-05-07 14:02 | 43.90168 | 152.92668 | 30944 ft | 553 kts | 40° |
| 2026-05-07 14:02 | 43.96197 | 153.01836 | 30930 ft | 553 kts | 40° |
| 2026-05-07 14:03 | 44.00536 | 153.08451 | 30933 ft | 552 kts | 40° |
| 2026-05-07 14:03 | 44.05702 | 153.16348 | 30935 ft | 552 kts | 40° |
| 2026-05-07 14:04 | 44.10867 | 153.24264 | 30925 ft | 552 kts | 40° |
| 2026-05-07 14:04 | 44.16024 | 153.32191 | 30926 ft | 553 kts | 40° |
| 2026-05-07 14:05 | 44.21187 | 153.40149 | 30924 ft | 554 kts | 40° |
| 2026-05-07 14:05 | 44.26346 | 153.48123 | 30922 ft | 554 kts | 40° |
| 2026-05-07 14:06 | 44.31509 | 153.56128 | 30918 ft | 555 kts | 40° |
| 2026-05-07 14:06 | 44.36638 | 153.64102 | 30918 ft | 555 kts | 40° |
| 2026-05-07 14:07 | 44.41798 | 153.72149 | 30926 ft | 556 kts | 40° |
| 2026-05-07 14:07 | 44.46993 | 153.80271 | 30914 ft | 556 kts | 40° |
| 2026-05-07 14:08 | 44.52113 | 153.88300 | 30939 ft | 556 kts | 41° |
| 2026-05-07 14:08 | 44.57269 | 153.96409 | 30923 ft | 557 kts | 40° |
| 2026-05-07 14:09 | 44.62420 | 154.04533 | 30910 ft | 557 kts | 40° |
| 2026-05-07 14:09 | 44.67562 | 154.12667 | 30909 ft | 557 kts | 41° |
| 2026-05-07 14:10 | 44.72700 | 154.20820 | 30914 ft | 557 kts | 40° |
| 2026-05-07 14:10 | 44.77828 | 154.28978 | 30903 ft | 556 kts | 41° |
| 2026-05-07 14:11 | 44.82947 | 154.37148 | 30904 ft | 556 kts | 41° |
| 2026-05-07 14:11 | 44.88051 | 154.45341 | 30914 ft | 557 kts | 41° |
| 2026-05-07 14:12 | 44.93107 | 154.53648 | 30905 ft | 558 kts | 41° |
| 2026-05-07 14:12 | 44.98134 | 154.61981 | 30895 ft | 558 kts | 42° |
| 2026-05-07 14:13 | 45.03159 | 154.70315 | 30893 ft | 557 kts | 41° |
| 2026-05-07 14:13 | 45.08189 | 154.78663 | 30894 ft | 557 kts | 41° |
| 2026-05-07 14:14 | 45.13212 | 154.87016 | 30886 ft | 557 kts | 42° |
| 2026-05-07 14:14 | 45.18225 | 154.95379 | 30888 ft | 556 kts | 42° |
| 2026-05-07 14:15 | 45.23227 | 155.03750 | 30893 ft | 557 kts | 42° |
| 2026-05-07 14:15 | 45.28231 | 155.12150 | 30888 ft | 557 kts | 42° |
| 2026-05-07 14:16 | 45.33226 | 155.20561 | 30883 ft | 557 kts | 42° |
| 2026-05-07 14:16 | 45.38217 | 155.28992 | 30898 ft | 557 kts | 42° |
| 2026-05-07 14:17 | 45.43201 | 155.37434 | 30878 ft | 557 kts | 42° |
| 2026-05-07 14:17 | 45.48173 | 155.45883 | 30879 ft | 556 kts | 43° |
| 2026-05-07 14:18 | 45.53135 | 155.54339 | 30893 ft | 556 kts | 43° |
| 2026-05-07 14:18 | 45.58095 | 155.62816 | 30878 ft | 557 kts | 43° |
| 2026-05-07 14:19 | 45.63048 | 155.71308 | 30876 ft | 557 kts | 43° |
| 2026-05-07 14:19 | 45.67995 | 155.79817 | 30870 ft | 557 kts | 43° |
| 2026-05-07 14:20 | 45.72943 | 155.88352 | 30872 ft | 557 kts | 43° |
| 2026-05-07 14:20 | 45.77883 | 155.96899 | 30867 ft | 557 kts | 43° |
| 2026-05-07 14:21 | 45.82814 | 156.05458 | 30868 ft | 557 kts | 43° |
| 2026-05-07 14:21 | 45.87740 | 156.14035 | 30868 ft | 557 kts | 43° |
| 2026-05-07 14:22 | 45.92659 | 156.22624 | 30873 ft | 558 kts | 43° |
| 2026-05-07 14:22 | 45.97584 | 156.31249 | 30861 ft | 558 kts | 43° |
| 2026-05-07 14:23 | 46.02500 | 156.39888 | 30888 ft | 559 kts | 43° |
| 2026-05-07 14:23 | 46.07384 | 156.48497 | 30863 ft | 559 kts | 44° |
| 2026-05-07 14:24 | 46.12299 | 156.57189 | 30859 ft | 559 kts | 44° |
| 2026-05-07 14:24 | 46.17204 | 156.65890 | 30858 ft | 559 kts | 44° |
| 2026-05-07 14:25 | 46.22105 | 156.74610 | 30861 ft | 559 kts | 44° |
| 2026-05-07 14:25 | 46.27001 | 156.83348 | 30861 ft | 559 kts | 44° |
| 2026-05-07 14:26 | 46.31890 | 156.92099 | 30853 ft | 560 kts | 44° |
| 2026-05-07 14:26 | 46.36770 | 157.00865 | 30861 ft | 560 kts | 44° |
| 2026-05-07 14:27 | 46.41658 | 157.09672 | 30845 ft | 560 kts | 44° |
| 2026-05-07 14:27 | 46.46534 | 157.18485 | 30850 ft | 560 kts | 44° |
| 2026-05-07 14:28 | 46.51406 | 157.27320 | 30858 ft | 561 kts | 44° |
| 2026-05-07 14:28 | 46.56270 | 157.36168 | 30846 ft | 561 kts | 44° |
| 2026-05-07 14:29 | 46.61126 | 157.45030 | 30880 ft | 561 kts | 44° |
| 2026-05-07 14:29 | 46.65991 | 157.53935 | 30848 ft | 562 kts | 44° |
| 2026-05-07 14:30 | 46.70852 | 157.62863 | 30850 ft | 563 kts | 44° |
| 2026-05-07 14:30 | 46.75710 | 157.71815 | 30840 ft | 563 kts | 44° |
| 2026-05-07 14:31 | 46.80559 | 157.80780 | 30835 ft | 563 kts | 44° |
| 2026-05-07 14:31 | 46.85404 | 157.89765 | 30844 ft | 563 kts | 45° |
| 2026-05-07 14:32 | 46.90241 | 157.98767 | 30827 ft | 563 kts | 45° |
| 2026-05-07 14:32 | 46.95069 | 158.07779 | 30861 ft | 563 kts | 45° |
| 2026-05-07 14:33 | 46.99866 | 158.16762 | 30841 ft | 564 kts | 44° |
| 2026-05-07 14:33 | 47.04726 | 158.25893 | 30838 ft | 565 kts | 45° |
| 2026-05-07 14:34 | 47.09548 | 158.34984 | 30831 ft | 565 kts | 45° |
| 2026-05-07 14:34 | 47.14368 | 158.44102 | 30832 ft | 565 kts | 45° |
| 2026-05-07 14:35 | 47.19147 | 158.53171 | 30841 ft | 565 kts | 45° |
| 2026-05-07 14:35 | 47.23956 | 158.62327 | 30829 ft | 565 kts | 45° |
| 2026-05-07 14:36 | 47.28754 | 158.71494 | 30832 ft | 565 kts | 45° |
| 2026-05-07 14:36 | 47.33548 | 158.80684 | 30849 ft | 565 kts | 45° |
| 2026-05-07 14:37 | 47.38334 | 158.89888 | 30837 ft | 565 kts | 45° |